createdAt,value
2019-03-30T00:02:16.816Z,4.33
2019-03-30T00:04:45.587Z,3.47
2019-03-30T00:07:14.374Z,3.90
2019-03-30T00:09:43.337Z,4.80
2019-03-30T00:12:12.155Z,4.57
2019-03-30T00:14:41.022Z,3.40
2019-03-30T00:17:09.910Z,3.63
2019-03-30T00:19:38.712Z,4.40
2019-03-30T00:22:07.484Z,4.23
2019-03-30T00:24:36.327Z,3.83
2019-03-30T00:27:05.134Z,4.00
2019-03-30T00:29:33.997Z,5.00
2019-03-30T00:32:03.015Z,4.17
2019-03-30T00:34:31.863Z,5.97
2019-03-30T00:37:00.890Z,3.83
2019-03-30T00:39:29.801Z,4.10
2019-03-30T00:41:58.560Z,4.67
2019-03-30T00:44:27.285Z,3.50
2019-03-30T00:46:56.263Z,4.43
2019-03-30T00:49:25.070Z,3.87
2019-03-30T00:51:53.909Z,4.33
2019-03-30T00:54:22.781Z,4.50
2019-03-30T00:56:51.572Z,3.63
2019-03-30T00:59:20.437Z,4.67
2019-03-30T01:01:49.367Z,3.67
2019-03-30T01:04:18.094Z,4.00
2019-03-30T01:06:47.187Z,3.70
2019-03-30T01:09:16.143Z,3.50
2019-03-30T01:11:44.962Z,4.70
2019-03-30T01:14:13.778Z,3.57
2019-03-30T01:16:42.676Z,4.67
2019-03-30T01:19:11.602Z,4.60
2019-03-30T01:21:40.396Z,3.60
2019-03-30T01:24:09.390Z,3.47
2019-03-30T01:26:38.203Z,3.87
2019-03-30T01:29:07.082Z,3.60
2019-03-30T01:31:36.090Z,3.43
2019-03-30T01:34:05.074Z,3.50
2019-03-30T01:36:33.832Z,4.00
2019-03-30T01:39:02.858Z,3.50
2019-03-30T01:41:31.696Z,3.60
2019-03-30T01:44:00.902Z,3.80
2019-03-30T01:46:29.914Z,3.87
2019-03-30T01:48:58.685Z,3.90
2019-03-30T01:51:27.463Z,3.73
2019-03-30T01:53:56.381Z,3.20
2019-03-30T01:56:25.197Z,3.70
2019-03-30T01:58:56.519Z,4.13
2019-03-30T02:01:25.543Z,3.63
2019-03-30T02:03:55.835Z,3.57
2019-03-30T02:06:24.759Z,3.80
2019-03-30T02:08:54.208Z,3.33
2019-03-30T02:11:22.990Z,4.50
2019-03-30T02:13:51.773Z,3.63
2019-03-30T02:16:20.749Z,3.83
2019-03-30T02:18:49.668Z,4.20
2019-03-30T02:21:18.503Z,4.10
2019-03-30T02:23:47.549Z,4.13
2019-03-30T02:26:16.398Z,4.63
2019-03-30T02:28:45.150Z,3.63
2019-03-30T02:31:14.052Z,3.87
2019-03-30T02:33:42.755Z,3.67
2019-03-30T02:36:11.597Z,4.50
2019-03-30T02:38:40.540Z,3.60
2019-03-30T02:41:09.353Z,3.60
2019-03-30T02:43:38.170Z,3.43
2019-03-30T02:46:07.134Z,3.77
2019-03-30T02:48:35.900Z,2.97
2019-03-30T02:51:04.723Z,3.33
2019-03-30T02:53:33.679Z,4.07
2019-03-30T02:56:02.737Z,3.83
2019-03-30T02:58:31.637Z,3.53
2019-03-30T03:01:00.605Z,3.53
2019-03-30T03:03:29.511Z,2.90
2019-03-30T03:05:58.332Z,4.10
2019-03-30T03:08:27.306Z,3.63
2019-03-30T03:10:56.508Z,3.60
2019-03-30T03:13:25.328Z,3.67
2019-03-30T03:15:54.564Z,3.63
2019-03-30T03:18:23.391Z,4.63
2019-03-30T03:21:06.654Z,3.27
2019-03-30T03:23:22.760Z,3.63
2019-03-30T03:25:51.506Z,3.60
2019-03-30T03:28:20.230Z,3.30
2019-03-30T03:30:49.250Z,3.80
2019-03-30T03:33:17.962Z,5.50
2019-03-30T03:35:46.830Z,3.43
2019-03-30T03:38:16.013Z,3.17
2019-03-30T03:40:44.827Z,3.97
2019-03-30T03:43:13.624Z,3.30
2019-03-30T03:45:42.541Z,3.40
2019-03-30T03:48:11.309Z,3.73
2019-03-30T03:50:45.509Z,3.33
2019-03-30T03:53:15.823Z,3.20
2019-03-30T03:55:44.952Z,4.47
2019-03-30T03:58:15.602Z,3.67
2019-03-30T04:00:45.011Z,3.43
2019-03-30T04:03:17.146Z,3.67
2019-03-30T04:05:47.282Z,4.93
2019-03-30T04:08:16.037Z,3.33
2019-03-30T04:10:47.321Z,3.30
2019-03-30T04:13:16.436Z,3.77
2019-03-30T04:15:45.297Z,3.43
2019-03-30T04:18:14.128Z,3.33
2019-03-30T04:20:42.936Z,3.33
2019-03-30T04:23:11.688Z,3.77
2019-03-30T04:25:40.575Z,3.47
2019-03-30T04:28:09.334Z,3.93
2019-03-30T04:30:38.097Z,3.40
2019-03-30T04:33:06.932Z,3.30
2019-03-30T04:35:35.754Z,3.07
2019-03-30T04:38:04.560Z,3.13
2019-03-30T04:40:33.785Z,4.50
2019-03-30T04:43:04.073Z,2.80
2019-03-30T04:45:34.360Z,3.10
2019-03-30T04:48:05.085Z,4.47
2019-03-30T04:50:36.599Z,3.43
2019-03-30T04:53:05.611Z,3.27
2019-03-30T04:55:34.336Z,4.07
2019-03-30T04:58:03.079Z,3.00
2019-03-30T05:00:32.395Z,3.80
2019-03-30T05:03:01.570Z,3.67
2019-03-30T05:05:30.442Z,4.00
2019-03-30T05:07:59.541Z,2.87
2019-03-30T05:10:28.351Z,3.60
2019-03-30T05:13:00.502Z,3.67
2019-03-30T05:15:29.371Z,3.77
2019-03-30T05:17:58.145Z,4.60
2019-03-30T05:20:27.089Z,3.40
2019-03-30T05:22:57.466Z,3.60
2019-03-30T05:25:26.457Z,4.33
2019-03-30T05:27:55.961Z,3.63
2019-03-30T05:30:25.234Z,3.07
2019-03-30T05:33:04.853Z,3.33
2019-03-30T05:35:24.620Z,3.20
2019-03-30T05:37:53.494Z,3.90
2019-03-30T05:40:22.234Z,4.43
2019-03-30T05:42:51.174Z,3.30
2019-03-30T05:45:19.970Z,3.83
2019-03-30T05:47:48.830Z,3.77
2019-03-30T05:50:17.843Z,3.40
2019-03-30T05:58:48.887Z,2.73
2019-03-30T06:01:17.820Z,3.33
2019-03-30T06:03:46.714Z,3.40
2019-03-30T06:06:15.626Z,3.93
2019-03-30T06:08:44.499Z,3.80
2019-03-30T06:11:13.331Z,3.10
2019-03-30T06:13:42.467Z,3.03
2019-03-30T06:16:11.305Z,3.10
2019-03-30T06:18:40.180Z,3.10
2019-03-30T06:21:09.167Z,3.20
2019-03-30T06:23:38.029Z,3.10
2019-03-30T06:26:06.906Z,3.10
2019-03-30T06:28:35.891Z,3.23
2019-03-30T06:31:04.718Z,3.53
2019-03-30T06:33:33.647Z,3.30
2019-03-30T06:36:02.855Z,3.10
2019-03-30T06:38:31.817Z,3.37
2019-03-30T06:41:00.880Z,3.37
2019-03-30T06:43:29.916Z,3.67
2019-03-30T06:45:59.008Z,3.30
2019-03-30T06:48:27.897Z,3.73
2019-03-30T06:50:57.120Z,2.63
2019-03-30T06:53:25.931Z,3.27
2019-03-30T06:55:54.762Z,3.10
2019-03-30T06:58:23.722Z,3.43
2019-03-30T07:00:52.939Z,3.03
2019-03-30T07:03:22.802Z,2.80
2019-03-30T07:05:53.995Z,3.27
2019-03-30T07:08:23.212Z,3.63
2019-03-30T07:10:52.058Z,3.50
2019-03-30T07:13:21.483Z,3.00
2019-03-30T07:15:50.539Z,2.97
2019-03-30T07:18:20.090Z,2.97
2019-03-30T07:20:48.985Z,2.90
2019-03-30T07:23:17.874Z,3.20
2019-03-30T07:25:46.682Z,3.53
2019-03-30T07:28:15.595Z,3.00
2019-03-30T07:30:44.435Z,2.93
2019-03-30T07:33:13.277Z,2.80
2019-03-30T07:35:42.264Z,2.93
2019-03-30T07:38:11.108Z,3.03
2019-03-30T07:40:39.865Z,3.47
2019-03-30T07:43:08.817Z,4.00
2019-03-30T07:45:37.645Z,2.97
2019-03-30T07:48:06.464Z,3.40
2019-03-30T07:50:35.511Z,2.60
2019-03-30T07:53:04.317Z,3.37
2019-03-30T07:55:33.584Z,2.87
2019-03-30T07:58:02.595Z,2.77
2019-03-30T08:00:31.771Z,3.30
2019-03-30T08:03:00.702Z,3.30
2019-03-30T08:05:29.645Z,3.20
2019-03-30T08:07:58.632Z,3.20
2019-03-30T08:10:27.471Z,3.07
2019-03-30T08:12:56.463Z,2.83
2019-03-30T08:15:25.314Z,2.93
2019-03-30T08:17:54.075Z,2.90
2019-03-30T08:20:23.067Z,3.03
2019-03-30T08:22:51.815Z,2.93
2019-03-30T08:25:20.654Z,2.73
2019-03-30T08:27:49.650Z,2.30
2019-03-30T08:30:19.960Z,2.90
2019-03-30T08:32:48.763Z,2.80
2019-03-30T08:35:17.767Z,2.90
2019-03-30T08:37:46.613Z,3.00
2019-03-30T08:40:15.431Z,3.23
2019-03-30T08:42:44.342Z,2.73
2019-03-30T08:45:13.178Z,2.33
2019-03-30T08:47:42.015Z,2.67
2019-03-30T08:50:11.133Z,3.23
2019-03-30T08:52:39.873Z,3.43
2019-03-30T08:55:09.217Z,1.93
2019-03-30T08:57:38.166Z,2.90
2019-03-30T09:00:08.012Z,2.60
2019-03-30T09:02:36.862Z,2.30
2019-03-30T09:05:07.794Z,2.40
2019-03-30T09:07:36.586Z,2.83
2019-03-30T09:10:07.814Z,2.30
2019-03-30T09:12:36.813Z,2.67
2019-03-30T09:15:07.195Z,2.27
2019-03-30T09:17:37.475Z,2.27
2019-03-30T09:20:07.964Z,2.40
2019-03-30T09:22:36.899Z,2.80
2019-03-30T09:25:06.041Z,2.83
2019-03-30T09:27:36.506Z,2.30
2019-03-30T09:30:08.288Z,2.80
2019-03-30T09:32:37.237Z,2.93
2019-03-30T09:35:07.949Z,2.63
2019-03-30T09:37:36.788Z,2.03
2019-03-30T09:40:08.504Z,2.50
2019-03-30T09:42:37.354Z,2.47
2019-03-30T09:45:07.591Z,2.53
2019-03-30T09:47:36.526Z,2.60
2019-03-30T09:50:10.396Z,3.23
2019-03-30T09:52:39.293Z,2.57
2019-03-30T09:55:08.238Z,2.93
2019-03-30T09:57:37.080Z,3.10
2019-03-30T10:00:09.114Z,2.37
2019-03-30T10:02:37.904Z,2.60
2019-03-30T10:05:06.919Z,2.57
2019-03-30T10:07:35.886Z,3.37
2019-03-30T10:10:06.362Z,2.43
2019-03-30T10:12:35.187Z,2.40
2019-03-30T10:15:05.155Z,2.43
2019-03-30T10:17:33.970Z,2.20
2019-03-30T10:20:04.584Z,3.27
2019-03-30T10:22:33.777Z,2.40
2019-03-30T10:25:02.702Z,3.07
2019-03-30T10:27:31.574Z,2.27
2019-03-30T10:30:00.723Z,3.73
2019-03-30T10:32:29.652Z,2.23
2019-03-30T10:34:58.561Z,2.43
2019-03-30T10:37:27.517Z,2.20
2019-03-30T10:39:56.360Z,1.90
2019-03-30T10:42:25.186Z,3.03
2019-03-30T10:44:54.177Z,2.70
2019-03-30T10:47:23.227Z,2.10
2019-03-30T10:49:52.042Z,3.20
2019-03-30T10:52:20.978Z,2.53
2019-03-30T10:54:53.011Z,2.10
2019-03-30T10:57:20.279Z,2.30
2019-03-30T10:59:49.316Z,2.03
2019-03-30T11:02:18.189Z,2.53
2019-03-30T11:04:47.048Z,2.70
2019-03-30T11:07:16.024Z,2.03
2019-03-30T11:09:44.835Z,2.03
2019-03-30T11:12:13.662Z,2.40
2019-03-30T11:14:42.615Z,2.87
2019-03-30T11:17:11.469Z,2.37
2019-03-30T11:19:40.351Z,2.30
2019-03-30T11:22:09.306Z,2.17
2019-03-30T11:24:38.134Z,1.97
2019-03-30T11:27:06.986Z,2.33
2019-03-30T11:29:36.013Z,2.20
2019-03-30T11:32:04.944Z,2.13
2019-03-30T11:34:34.741Z,2.00
2019-03-30T11:37:03.749Z,1.90
2019-03-30T11:39:32.800Z,2.30
2019-03-30T11:42:01.758Z,2.27
2019-03-30T11:44:30.915Z,2.10
2019-03-30T11:47:00.286Z,2.00
2019-03-30T11:49:29.320Z,2.30
2019-03-30T11:51:58.338Z,2.23
2019-03-30T11:54:27.171Z,2.47
2019-03-30T11:56:56.006Z,1.77
2019-03-30T11:59:25.020Z,1.93
2019-03-30T12:01:53.831Z,2.43
2019-03-30T12:04:22.689Z,2.10
2019-03-30T12:06:51.968Z,1.97
2019-03-30T12:09:20.991Z,3.30
2019-03-30T12:11:49.826Z,2.43
2019-03-30T12:14:19.167Z,1.90
2019-03-30T12:16:48.017Z,2.20
2019-03-30T12:19:16.886Z,2.10
2019-03-30T12:21:45.831Z,1.70
2019-03-30T12:24:14.680Z,2.40
2019-03-30T12:26:43.494Z,2.27
2019-03-30T12:29:12.397Z,2.00
2019-03-30T12:31:41.223Z,2.00
2019-03-30T12:34:12.954Z,2.00
2019-03-30T12:36:40.708Z,1.90
2019-03-30T12:39:09.586Z,2.23
2019-03-30T12:41:38.396Z,2.17
2019-03-30T12:44:07.461Z,1.83
2019-03-30T12:46:36.502Z,1.93
2019-03-30T12:49:05.345Z,2.30
2019-03-30T12:51:34.283Z,1.97
2019-03-30T12:54:03.341Z,1.90
2019-03-30T12:56:32.169Z,2.60
2019-03-30T12:59:01.353Z,2.40
2019-03-30T13:01:30.192Z,2.10
2019-03-30T13:03:59.200Z,1.83
2019-03-30T13:06:28.174Z,2.10
2019-03-30T13:08:57.043Z,2.17
2019-03-30T13:11:25.875Z,2.33
2019-03-30T13:13:54.906Z,2.00
2019-03-30T13:16:26.286Z,2.00
2019-03-30T13:18:54.239Z,2.20
2019-03-30T13:21:23.262Z,1.87
2019-03-30T13:23:52.067Z,2.20
2019-03-30T13:26:20.965Z,1.67
2019-03-30T13:28:49.901Z,2.57
2019-03-30T13:31:18.749Z,2.10
2019-03-30T13:33:47.626Z,2.07
2019-03-30T13:36:16.637Z,1.93
2019-03-30T13:38:45.422Z,1.83
2019-03-30T13:41:14.598Z,2.43
2019-03-30T13:43:43.684Z,2.27
2019-03-30T13:46:12.436Z,2.23
2019-03-30T13:48:41.245Z,1.90
2019-03-30T13:51:10.099Z,2.00
2019-03-30T13:53:38.923Z,2.50
2019-03-30T13:56:17.119Z,1.93
2019-03-30T13:58:38.252Z,2.40
2019-03-30T14:01:07.002Z,1.73
2019-03-30T14:03:35.838Z,2.40
2019-03-30T14:06:04.808Z,2.73
2019-03-30T14:08:33.751Z,2.20
2019-03-30T14:11:05.117Z,2.53
2019-03-30T14:13:34.084Z,3.50
2019-03-30T14:16:02.923Z,2.60
2019-03-30T14:18:31.759Z,2.40
2019-03-30T14:21:00.855Z,2.40
2019-03-30T14:23:29.697Z,3.03
2019-03-30T14:25:58.581Z,2.47
2019-03-30T14:28:27.569Z,2.30
2019-03-30T14:30:56.421Z,2.63
2019-03-30T14:33:25.306Z,3.17
2019-03-30T14:35:54.410Z,2.53
2019-03-30T14:38:23.263Z,2.43
2019-03-30T14:40:52.995Z,2.83
2019-03-30T14:43:21.957Z,2.67
2019-03-30T14:45:50.792Z,2.53
2019-03-30T14:48:19.662Z,2.50
2019-03-30T14:50:48.625Z,2.80
2019-03-30T14:53:17.571Z,2.47
2019-03-30T14:55:46.486Z,2.17
2019-03-30T14:58:15.513Z,2.20
2019-03-30T15:00:44.230Z,3.07
2019-03-30T15:03:13.444Z,2.67
2019-03-30T15:05:42.358Z,2.53
2019-03-30T15:08:11.157Z,2.37
2019-03-30T15:10:39.979Z,2.33
2019-03-30T15:13:08.987Z,2.97
2019-03-30T15:15:37.809Z,2.43
2019-03-30T15:18:06.634Z,2.80
2019-03-30T15:20:35.613Z,2.60
2019-03-30T15:23:04.534Z,2.40
2019-03-30T15:25:33.553Z,2.63
2019-03-30T15:28:02.874Z,3.17
2019-03-30T15:30:31.855Z,2.50
2019-03-30T15:33:03.429Z,3.07
2019-03-30T15:35:31.471Z,2.97
2019-03-30T15:38:00.365Z,2.67
2019-03-30T15:40:29.578Z,2.70
2019-03-30T15:43:38.474Z,2.70
2019-03-30T15:47:09.069Z,2.80
2019-03-30T15:49:38.018Z,2.53
2019-03-30T15:52:13.754Z,2.77
2019-03-30T15:54:37.468Z,3.17
2019-03-30T15:57:14.058Z,3.03
2019-03-30T15:59:37.058Z,2.77
2019-03-30T16:02:06.016Z,2.67
2019-03-30T16:04:34.823Z,3.20
2019-03-30T16:07:06.744Z,2.47
2019-03-30T16:09:34.208Z,2.57
2019-03-30T16:12:03.134Z,2.73
2019-03-30T16:14:32.261Z,3.07
2019-03-30T16:17:01.357Z,2.87
2019-03-30T16:19:30.311Z,3.60
2019-03-30T16:21:59.195Z,2.83
2019-03-30T16:24:30.102Z,2.97
2019-03-30T16:26:58.526Z,3.40
2019-03-30T16:29:27.934Z,3.20
2019-03-30T16:31:56.793Z,3.37
2019-03-30T16:34:25.613Z,3.00
2019-03-30T16:36:54.512Z,2.63
2019-03-30T16:39:23.375Z,3.93
2019-03-30T16:41:52.199Z,4.63
2019-03-30T16:44:21.095Z,3.60
2019-03-30T16:46:49.937Z,3.87
2019-03-30T16:49:18.664Z,3.40
2019-03-30T16:51:47.667Z,3.03
2019-03-30T16:54:16.526Z,3.40
2019-03-30T16:56:45.348Z,3.43
2019-03-30T16:59:14.264Z,4.63
2019-03-30T17:01:43.085Z,3.83
2019-03-30T17:04:11.914Z,3.53
2019-03-30T17:06:40.885Z,3.70
2019-03-30T17:09:09.678Z,4.03
2019-03-30T17:11:38.579Z,4.23
2019-03-30T17:14:07.611Z,3.93
2019-03-30T17:16:36.457Z,3.20
2019-03-30T17:19:05.677Z,4.10
2019-03-30T17:21:34.635Z,4.53
2019-03-30T17:24:03.568Z,3.80
2019-03-30T17:26:32.562Z,4.00
2019-03-30T17:29:01.682Z,4.33
2019-03-30T17:31:30.551Z,4.50
2019-03-30T17:33:59.637Z,3.97
2019-03-30T17:36:28.704Z,3.77
2019-03-30T17:38:57.722Z,4.40
2019-03-30T17:41:26.785Z,4.67
2019-03-30T17:43:55.795Z,4.00
2019-03-30T17:46:24.616Z,4.00
2019-03-30T17:48:53.452Z,4.50
2019-03-30T17:51:22.459Z,4.70
2019-03-30T17:53:51.447Z,4.67
2019-03-30T17:56:20.380Z,4.70
2019-03-30T17:58:49.245Z,4.70
2019-03-30T18:01:18.192Z,6.13
2019-03-30T18:03:47.009Z,4.63
2019-03-30T18:06:15.969Z,5.03
2019-03-30T18:08:44.865Z,4.37
2019-03-30T18:11:13.749Z,5.30
2019-03-30T18:13:42.914Z,5.63
2019-03-30T18:16:11.719Z,5.13
2019-03-30T18:18:40.614Z,5.40
2019-03-30T18:21:09.508Z,4.83
2019-03-30T18:23:38.375Z,6.10
2019-03-30T18:26:07.297Z,5.90
2019-03-30T18:28:36.228Z,5.37
2019-03-30T18:31:05.103Z,6.10
2019-03-30T18:33:34.544Z,5.60
2019-03-30T18:36:04.623Z,6.83
2019-03-30T18:38:36.768Z,6.53
2019-03-30T18:41:06.095Z,6.00
2019-03-30T18:43:35.029Z,6.93
2019-03-30T18:46:04.385Z,6.60
2019-03-30T18:48:33.583Z,6.43
2019-03-30T18:51:02.435Z,6.03
2019-03-30T18:53:31.347Z,5.90
2019-03-30T18:56:00.544Z,7.20
2019-03-30T18:58:41.041Z,6.17
2019-03-30T19:01:01.251Z,5.87
2019-03-30T19:03:30.461Z,6.83
2019-03-30T19:05:59.364Z,6.87
2019-03-30T19:08:28.187Z,6.50
2019-03-30T19:10:57.131Z,5.53
2019-03-30T19:13:25.966Z,6.83
2019-03-30T19:15:55.331Z,7.37
2019-03-30T19:18:24.350Z,6.20
2019-03-30T19:20:53.191Z,6.93
2019-03-30T19:23:22.080Z,6.80
2019-03-30T19:25:52.983Z,7.40
2019-03-30T19:28:22.054Z,6.63
2019-03-30T19:30:50.949Z,8.87
2019-03-30T19:33:20.018Z,6.87
2019-03-30T19:35:48.809Z,7.30
2019-03-30T19:38:17.711Z,7.57
2019-03-30T19:40:46.745Z,7.30
2019-03-30T19:43:15.611Z,7.87
2019-03-30T19:45:44.549Z,6.87
2019-03-30T19:48:13.697Z,7.40
2019-03-30T19:50:42.581Z,7.03
2019-03-30T19:53:11.528Z,7.80
2019-03-30T19:55:40.527Z,6.97
2019-03-30T19:58:09.368Z,7.93
2019-03-30T20:00:38.973Z,7.40
2019-03-30T20:03:08.235Z,7.20
2019-03-30T20:05:37.093Z,6.57
2019-03-30T20:08:12.489Z,7.83
2019-03-30T20:10:36.778Z,7.50
2019-03-30T20:13:09.054Z,8.73
2019-03-30T20:15:36.172Z,7.87
2019-03-30T20:18:05.162Z,8.17
2019-03-30T20:20:33.989Z,7.87
2019-03-30T20:23:02.822Z,8.20
2019-03-30T20:25:31.869Z,8.27
2019-03-30T20:28:00.804Z,8.87
2019-03-30T20:30:29.683Z,10.03
2019-03-30T20:32:58.686Z,8.07
2019-03-30T20:35:27.542Z,8.07
2019-03-30T20:37:56.444Z,8.20
2019-03-30T20:40:25.382Z,8.53
2019-03-30T20:42:54.242Z,7.17
2019-03-30T20:45:23.093Z,8.57
2019-03-30T20:47:52.007Z,7.87
2019-03-30T20:50:20.895Z,8.03
2019-03-30T20:52:49.734Z,6.63
2019-03-30T20:55:18.779Z,7.43
2019-03-30T20:57:47.830Z,7.10
2019-03-30T21:00:16.806Z,7.40
2019-03-30T21:02:45.834Z,6.00
2019-03-30T21:05:15.072Z,7.67
2019-03-30T21:07:43.943Z,7.20
2019-03-30T21:10:13.180Z,6.97
2019-03-30T21:12:42.119Z,6.13
2019-03-30T21:15:11.253Z,7.23
2019-03-30T21:17:40.286Z,6.10
2019-03-30T21:20:29.890Z,6.83
2019-03-30T21:22:58.805Z,6.23
2019-03-30T21:25:27.691Z,6.87
2019-03-30T21:27:56.684Z,6.33
2019-03-30T21:30:25.713Z,5.80
2019-03-30T21:32:54.494Z,6.03
2019-03-30T21:35:23.359Z,6.83
2019-03-30T21:37:52.229Z,6.60
2019-03-30T21:40:21.144Z,6.33
2019-03-30T21:42:49.989Z,6.20
2019-03-30T21:45:19.063Z,6.37
2019-03-30T21:47:47.892Z,6.57
2019-03-30T21:50:17.121Z,5.63
2019-03-30T21:52:46.236Z,5.67
2019-03-30T21:55:15.105Z,5.87
2019-03-30T21:57:44.046Z,5.10
2019-03-30T22:00:14.416Z,5.10
2019-03-30T22:02:43.276Z,5.23
2019-03-30T22:05:12.177Z,5.13
2019-03-30T22:07:41.226Z,6.13
2019-03-30T22:10:11.624Z,4.87
2019-03-30T22:12:42.117Z,4.17
2019-03-30T22:15:11.396Z,4.90
2019-03-30T22:17:40.241Z,5.53
2019-03-30T22:20:09.166Z,5.20
2019-03-30T22:22:37.990Z,4.90
2019-03-30T22:25:07.133Z,5.37
2019-03-30T22:27:36.358Z,4.13
2019-03-30T22:30:07.140Z,4.83
2019-03-30T22:32:35.992Z,4.53
2019-03-30T22:35:05.576Z,4.17
2019-03-30T22:37:34.400Z,4.50
2019-03-30T22:40:03.452Z,4.33
2019-03-30T22:42:32.559Z,4.17
2019-03-30T22:45:01.617Z,4.07
2019-03-30T22:47:30.587Z,4.10
2019-03-30T22:49:59.667Z,4.23
2019-03-30T22:52:28.523Z,4.40
2019-03-30T22:54:57.536Z,3.63
2019-03-30T22:57:26.660Z,3.80
2019-03-30T22:59:55.528Z,4.70
2019-03-30T23:02:24.359Z,4.10
2019-03-30T23:04:53.423Z,3.60
2019-03-30T23:07:41.436Z,3.50
2019-03-30T23:10:10.499Z,3.60
2019-03-30T23:12:39.331Z,3.50
2019-03-30T23:15:11.166Z,3.33
2019-03-30T23:17:40.032Z,3.90
2019-03-30T23:20:09.173Z,3.87
2019-03-30T23:22:38.091Z,3.57
2019-03-30T23:25:07.557Z,2.83
2019-03-30T23:27:36.376Z,2.90
2019-03-30T23:30:07.265Z,2.50
2019-03-30T23:32:36.103Z,3.10
2019-03-30T23:35:06.728Z,2.50
2019-03-30T23:37:37.109Z,2.67
2019-03-30T23:40:07.233Z,2.67
2019-03-30T23:42:36.061Z,2.20
2019-03-30T23:45:05.638Z,2.70
2019-03-30T23:47:34.416Z,2.77
2019-03-30T23:50:03.633Z,2.83
2019-03-30T23:52:32.784Z,2.77
2019-03-30T23:55:01.746Z,2.10
2019-03-30T23:57:30.594Z,2.47
2019-03-30T23:59:59.641Z,2.57
